createdAt,value
2019-04-11T00:42:45.084Z,59.14
2019-04-11T00:43:45.387Z,59.44
2019-04-11T00:44:45.154Z,58.12
2019-04-11T00:45:44.130Z,57.32
2019-04-11T00:46:44.621Z,57.11
2019-04-11T00:47:44.981Z,56.07
2019-04-11T00:48:44.045Z,54.86
2019-04-11T00:49:43.981Z,54.08
2019-04-11T00:50:43.976Z,55.87
2019-04-11T00:51:44.388Z,55.82
2019-04-11T00:52:43.950Z,53.80
2019-04-11T00:53:44.511Z,52.81
2019-04-11T00:54:43.927Z,54.60
2019-04-11T00:55:43.962Z,53.09
2019-04-11T00:56:44.226Z,53.49
2019-04-11T00:57:43.999Z,54.71
2019-04-11T00:58:43.887Z,52.69
2019-04-11T00:59:44.695Z,55.41
2019-04-11T01:00:44.969Z,53.49
2019-04-11T01:01:44.949Z,52.99
2019-04-11T01:02:43.842Z,54.91
2019-04-11T01:03:43.887Z,52.69
2019-04-11T01:04:43.824Z,52.99
2019-04-11T01:05:43.808Z,53.19
2019-04-11T01:06:44.607Z,54.51
2019-04-11T01:07:43.929Z,53.16
2019-04-11T01:08:44.064Z,52.78
2019-04-11T01:09:44.310Z,54.48
2019-04-11T01:10:43.758Z,52.84
2019-04-11T01:11:43.746Z,51.52
2019-04-11T01:12:44.683Z,50.31
2019-04-11T01:13:50.357Z,51.45
2019-04-11T01:15:08.582Z,51.47
2019-04-11T01:16:09.113Z,52.78
2019-04-11T01:17:09.427Z,53.39
2019-04-11T01:18:08.497Z,53.16
2019-04-11T01:19:08.750Z,51.52
2019-04-11T01:20:08.474Z,51.45
2019-04-11T01:21:08.563Z,51.65
2019-04-11T01:22:08.450Z,52.69
2019-04-11T01:23:08.949Z,52.58
2019-04-11T01:24:09.295Z,52.89
2019-04-11T01:25:08.508Z,53.77
2019-04-11T01:26:08.730Z,54.15
2019-04-11T01:27:09.727Z,53.11
2019-04-11T01:28:08.385Z,53.34
2019-04-11T01:29:09.249Z,49.41
2019-04-11T01:30:08.367Z,52.51
2019-04-11T01:31:09.396Z,49.71
2019-04-11T01:32:08.382Z,52.23
2019-04-11T01:33:08.386Z,51.50
2019-04-11T01:34:08.584Z,49.36
2019-04-11T01:35:08.926Z,51.28
2019-04-11T01:36:08.915Z,48.74
2019-04-11T01:37:09.174Z,48.86
2019-04-11T01:38:08.336Z,48.60
2019-04-11T01:39:08.516Z,49.92
2019-04-11T01:40:08.257Z,50.16
2019-04-11T01:41:08.248Z,52.69
2019-04-11T01:42:09.104Z,51.80
2019-04-11T01:43:08.226Z,52.13
2019-04-11T01:44:08.920Z,53.54
2019-04-11T01:45:09.411Z,52.74
2019-04-11T01:46:08.200Z,53.62
2019-04-11T01:47:08.721Z,54.86
2019-04-11T01:48:09.095Z,53.54
2019-04-11T01:49:08.202Z,53.85
2019-04-11T01:50:08.505Z,55.09
2019-04-11T01:51:08.192Z,55.49
2019-04-11T01:52:08.128Z,59.63
2019-04-11T01:53:08.934Z,60.37
2019-04-11T01:54:08.110Z,62.09
2019-04-11T01:55:08.303Z,62.42
2019-04-11T01:56:09.274Z,62.22
2019-04-11T01:57:08.123Z,62.83
2019-04-11T01:58:08.667Z,63.33
2019-04-11T01:59:08.053Z,63.06
2019-04-11T02:00:09.394Z,63.97
2019-04-11T02:01:08.379Z,63.56
2019-04-11T02:02:08.027Z,63.97
2019-04-11T02:03:08.829Z,63.36
2019-04-11T02:04:08.006Z,63.56
2019-04-11T02:05:08.381Z,63.67
2019-04-11T02:06:07.979Z,63.77
2019-04-11T02:07:07.971Z,63.36
2019-04-11T02:08:09.182Z,63.47
2019-04-11T02:09:08.150Z,63.64
2019-04-11T02:10:08.552Z,62.96
2019-04-11T02:11:08.193Z,62.76
2019-04-11T02:12:07.913Z,62.83
2019-04-11T02:13:07.929Z,61.68
2019-04-11T02:14:14.112Z,59.10
2019-04-11T02:15:32.742Z,59.07
2019-04-11T02:16:32.830Z,60.69
2019-04-11T02:17:32.922Z,60.79
2019-04-11T02:18:32.711Z,59.88
2019-04-11T02:19:32.699Z,59.78
2019-04-11T02:20:33.369Z,58.34
2019-04-11T02:21:33.665Z,57.20
2019-04-11T02:22:32.809Z,55.76
2019-04-11T02:23:32.657Z,54.63
2019-04-11T02:24:32.645Z,55.21
2019-04-11T02:25:32.634Z,54.20
2019-04-11T02:26:33.581Z,53.17
2019-04-11T02:27:32.744Z,52.23
2019-04-11T02:28:32.885Z,52.33
2019-04-11T02:29:33.293Z,52.41
2019-04-11T02:30:33.929Z,49.79
2019-04-11T02:31:32.771Z,50.32
2019-04-11T02:32:34.421Z,49.84
2019-04-11T02:33:32.972Z,50.57
2019-04-11T02:34:32.538Z,50.59
2019-04-11T02:35:32.645Z,53.44
2019-04-11T02:36:34.171Z,53.80
2019-04-11T02:37:34.330Z,53.47
2019-04-11T02:38:33.306Z,53.04
2019-04-11T02:39:33.753Z,52.21
2019-04-11T02:40:32.875Z,52.28
2019-04-11T02:41:35.068Z,50.95
2019-04-11T02:42:32.976Z,51.15
2019-04-11T02:43:34.103Z,51.15
2019-04-11T02:44:51.055Z,50.43
2019-04-11T02:46:09.802Z,50.00
2019-04-11T02:47:25.336Z,49.27
2019-04-11T02:48:46.908Z,49.01
2019-04-11T02:49:47.724Z,50.17
2019-04-11T02:50:47.852Z,51.30
2019-04-11T02:51:47.333Z,53.32
2019-04-11T02:52:47.388Z,54.02
2019-04-11T02:53:47.285Z,52.01
2019-04-11T02:54:47.359Z,52.44
2019-04-11T02:55:46.931Z,53.07
2019-04-11T02:56:48.797Z,53.47
2019-04-11T02:57:48.251Z,54.30
2019-04-11T02:58:48.155Z,52.49
2019-04-11T02:59:48.902Z,53.49
2019-04-11T03:00:46.949Z,53.90
2019-04-11T03:01:48.444Z,55.11
2019-04-11T03:02:47.910Z,56.02
2019-04-11T03:03:47.467Z,55.71
2019-04-11T03:04:48.132Z,54.60
2019-04-11T03:05:47.063Z,55.31
2019-04-11T03:06:47.917Z,55.71
2019-04-11T03:07:47.699Z,55.92
2019-04-11T03:08:46.626Z,54.93
2019-04-11T03:09:48.707Z,55.13
2019-04-11T03:10:46.672Z,57.23
2019-04-11T03:11:47.225Z,54.18
2019-04-11T03:12:48.477Z,54.58
2019-04-11T03:13:48.278Z,52.94
2019-04-11T03:15:05.440Z,53.64
2019-04-11T03:16:29.766Z,55.05
2019-04-11T03:17:40.124Z,55.16
2019-04-11T03:19:17.890Z,54.68
2019-04-11T03:20:32.575Z,55.21
2019-04-11T03:21:29.168Z,56.02
2019-04-11T03:22:26.924Z,54.60
2019-04-11T03:23:27.838Z,55.44
2019-04-11T03:24:26.979Z,54.71
2019-04-11T03:25:25.873Z,55.21
2019-04-11T03:26:27.056Z,55.71
2019-04-11T03:27:28.093Z,55.84
2019-04-11T03:28:30.247Z,56.15
2019-04-11T03:29:26.741Z,55.84
2019-04-11T03:30:42.373Z,55.16
2019-04-11T03:32:32.113Z,55.77
2019-04-11T03:34:01.298Z,56.37
2019-04-11T03:37:43.101Z,57.28
2019-04-11T03:38:33.111Z,56.68
2019-04-11T03:39:50.739Z,57.48
2019-04-11T03:41:11.568Z,53.77
2019-04-11T03:42:36.586Z,53.97
2019-04-11T03:43:54.076Z,55.29
2019-04-11T03:45:32.568Z,56.09
2019-04-11T03:46:28.356Z,54.85
2019-04-11T03:47:44.850Z,54.98
2019-04-11T03:49:06.360Z,55.94
2019-04-11T03:50:25.963Z,53.32
2019-04-11T03:51:48.310Z,53.42
2019-04-11T03:52:49.579Z,54.32
2019-04-11T03:53:49.054Z,54.05
2019-04-11T03:54:49.554Z,54.88
2019-04-11T03:55:49.417Z,55.31
2019-04-11T03:56:49.168Z,55.62
2019-04-11T03:57:49.175Z,54.83
2019-04-11T03:58:50.248Z,55.94
2019-04-11T03:59:48.470Z,54.73
2019-04-11T04:00:50.569Z,55.13
2019-04-11T04:01:48.759Z,55.54
2019-04-11T04:02:48.956Z,57.48
2019-04-11T04:03:49.027Z,56.88
2019-04-11T04:04:49.334Z,57.89
2019-04-11T04:05:48.655Z,57.89
2019-04-11T04:06:49.771Z,56.95
2019-04-11T04:07:48.871Z,56.85
2019-04-11T04:08:48.762Z,56.85
2019-04-11T04:09:49.026Z,56.68
2019-04-11T04:10:48.106Z,56.95
2019-04-11T04:11:49.329Z,57.73
2019-04-11T04:12:48.196Z,56.57
2019-04-11T04:13:49.716Z,56.07
2019-04-11T04:14:49.532Z,55.74
2019-04-11T04:16:00.276Z,55.26
2019-04-11T04:17:12.843Z,56.50
2019-04-11T04:18:14.274Z,58.03
2019-04-11T04:19:15.715Z,58.14
2019-04-11T04:20:13.031Z,58.47
2019-04-11T04:21:13.402Z,57.36
2019-04-11T04:22:13.540Z,57.89
2019-04-11T04:23:14.126Z,58.90
2019-04-11T04:24:12.794Z,59.00
2019-04-11T04:25:14.183Z,59.21
2019-04-11T04:26:14.609Z,59.84
2019-04-11T04:27:13.237Z,59.63
2019-04-11T04:28:14.260Z,59.43
2019-04-11T04:29:12.725Z,58.52
2019-04-11T04:30:13.708Z,59.84
2019-04-11T04:31:14.015Z,58.52
2019-04-11T04:32:14.175Z,57.79
2019-04-11T04:33:14.461Z,58.27
2019-04-11T04:34:13.025Z,57.83
2019-04-11T04:35:16.796Z,58.03
2019-04-11T04:36:37.873Z,57.83
2019-04-11T04:37:38.787Z,58.34
2019-04-11T04:38:38.999Z,58.44
2019-04-11T04:39:39.008Z,59.35
2019-04-11T04:40:51.172Z,59.96
2019-04-11T04:42:10.605Z,59.85
2019-04-11T04:43:27.941Z,59.75
2019-04-11T04:44:27.067Z,59.38
2019-04-11T04:45:27.682Z,58.54
2019-04-11T04:46:45.323Z,58.97
2019-04-11T04:47:56.581Z,58.47
2019-04-11T04:49:18.523Z,59.17
2019-04-11T04:50:18.177Z,59.78
2019-04-11T04:51:19.591Z,59.28
2019-04-11T04:52:16.680Z,59.07
2019-04-11T04:53:18.026Z,59.98
2019-04-11T04:54:16.794Z,59.58
2019-04-11T04:55:17.278Z,58.44
2019-04-11T04:56:22.049Z,59.65
2019-04-11T04:57:42.892Z,58.52
2019-04-11T04:58:42.092Z,59.05
2019-04-11T04:59:42.531Z,58.54
2019-04-11T05:00:41.391Z,59.65
2019-04-11T05:01:42.114Z,59.96
2019-04-11T05:02:42.108Z,59.55
2019-04-11T05:03:42.344Z,60.05
2019-04-11T05:04:41.350Z,59.45
2019-04-11T05:05:42.453Z,59.05
2019-04-11T05:06:44.803Z,60.36
2019-04-11T05:08:06.332Z,60.53
2019-04-11T05:09:06.569Z,62.07
2019-04-11T05:10:07.149Z,62.07
2019-04-11T05:11:07.644Z,62.38
2019-04-11T05:12:06.161Z,61.97
2019-04-11T05:13:07.636Z,62.38
2019-04-11T05:14:07.209Z,63.18
2019-04-11T05:15:06.068Z,65.10
2019-04-11T05:16:16.418Z,64.90
2019-04-11T05:17:32.409Z,63.92
2019-04-11T05:18:32.027Z,64.33
2019-04-11T05:19:32.019Z,64.12
2019-04-11T05:20:30.874Z,66.58
2019-04-11T05:21:30.868Z,65.67
2019-04-11T05:22:31.052Z,65.70
2019-04-11T05:23:31.876Z,65.80
2019-04-11T05:24:30.833Z,66.71
2019-04-11T05:25:30.829Z,66.34
2019-04-11T05:26:31.401Z,67.05
2019-04-11T05:27:31.440Z,66.64
2019-04-11T05:28:31.874Z,67.65
2019-04-11T05:29:30.783Z,66.84
2019-04-11T05:30:31.534Z,67.59
2019-04-11T05:31:30.759Z,68.70
2019-04-11T05:32:31.269Z,69.00
2019-04-11T05:33:31.479Z,69.10
2019-04-11T05:34:30.982Z,69.64
2019-04-11T05:35:32.854Z,68.93
2019-04-11T05:36:30.710Z,69.14
2019-04-11T05:37:31.325Z,70.05
2019-04-11T05:38:30.681Z,70.86
2019-04-11T05:39:31.659Z,70.86
2019-04-11T05:40:31.018Z,69.91
2019-04-11T05:41:31.459Z,69.00
2019-04-11T05:42:31.325Z,68.49
2019-04-11T05:43:36.638Z,69.20
2019-04-11T05:44:55.450Z,70.65
2019-04-11T05:45:56.727Z,71.36
2019-04-11T05:46:59.176Z,72.27
2019-04-11T05:47:56.675Z,72.17
2019-04-11T05:49:00.447Z,71.36
2019-04-11T05:49:55.386Z,71.46
2019-04-11T05:50:56.223Z,71.66
2019-04-11T05:51:57.997Z,72.78
2019-04-11T05:52:56.627Z,72.17
2019-04-11T05:53:55.849Z,73.18
2019-04-11T05:54:55.375Z,73.59
2019-04-11T05:55:55.337Z,73.29
2019-04-11T05:56:57.813Z,73.59
2019-04-11T05:57:55.397Z,73.59
2019-04-11T05:58:55.624Z,73.49
2019-04-11T05:59:56.568Z,68.46
2019-04-11T06:00:55.962Z,72.10
2019-04-11T06:01:55.267Z,71.63
2019-04-11T06:02:55.273Z,72.24
2019-04-11T06:03:55.739Z,72.58
2019-04-11T06:04:56.160Z,73.73
2019-04-11T06:05:59.692Z,74.33
2019-04-11T06:06:56.885Z,75.28
2019-04-11T06:07:57.612Z,75.89
2019-04-11T06:08:59.363Z,75.82
2019-04-11T06:09:55.228Z,75.51
2019-04-11T06:10:55.166Z,76.87
2019-04-11T06:11:57.542Z,76.53
2019-04-11T06:12:55.143Z,76.67
2019-04-11T06:13:55.137Z,76.67
2019-04-11T06:14:55.497Z,76.56
2019-04-11T06:15:56.650Z,76.53
2019-04-11T06:16:56.163Z,76.53
2019-04-11T06:17:55.096Z,76.94
2019-04-11T06:18:57.169Z,77.24
2019-04-11T06:19:55.671Z,76.09
2019-04-11T06:20:55.680Z,75.75
2019-04-11T06:21:56.075Z,74.20
2019-04-11T06:22:56.130Z,73.05
2019-04-11T06:23:55.914Z,72.10
2019-04-11T06:24:55.016Z,71.39
2019-04-11T06:25:55.546Z,71.36
2019-04-11T06:26:54.998Z,71.06
2019-04-11T06:27:55.807Z,70.62
2019-04-11T06:28:55.864Z,70.72
2019-04-11T06:29:54.973Z,70.72
2019-04-11T06:30:54.954Z,68.87
2019-04-11T06:31:55.120Z,68.54
2019-04-11T06:32:56.230Z,68.94
2019-04-11T06:33:54.976Z,68.43
2019-04-11T06:34:55.589Z,68.13
2019-04-11T06:35:54.906Z,67.52
2019-04-11T06:36:55.264Z,66.79
2019-04-11T06:37:54.882Z,66.89
2019-04-11T06:38:54.868Z,67.19
2019-04-11T06:39:57.826Z,67.80
2019-04-11T06:40:54.845Z,67.80
2019-04-11T06:41:54.952Z,66.99
2019-04-11T06:42:55.939Z,67.16
2019-04-11T06:43:54.815Z,66.76
2019-04-11T06:44:54.804Z,66.18
2019-04-11T06:45:54.854Z,66.38
2019-04-11T06:46:57.740Z,66.89
2019-04-11T06:47:54.775Z,67.49
2019-04-11T06:48:55.904Z,67.49
2019-04-11T06:49:55.108Z,65.85
2019-04-11T06:50:55.544Z,65.11
2019-04-11T06:51:55.103Z,64.68
2019-04-11T06:52:54.718Z,63.84
2019-04-11T06:53:54.714Z,60.96
2019-04-11T06:54:54.696Z,61.91
2019-04-11T06:55:55.126Z,58.77
2019-04-11T06:56:54.727Z,60.55
2019-04-11T06:57:54.672Z,58.44
2019-04-11T06:58:56.447Z,57.71
2019-04-11T06:59:54.653Z,57.51
2019-04-11T07:00:55.704Z,58.01
2019-04-11T07:01:55.134Z,58.01
2019-04-11T07:02:55.124Z,58.01
2019-04-11T07:03:55.290Z,57.84
2019-04-11T07:04:54.780Z,57.81
2019-04-11T07:05:55.289Z,58.44
2019-04-11T07:06:55.772Z,57.53
2019-04-11T07:07:55.790Z,58.87
2019-04-11T07:08:54.724Z,59.73
2019-04-11T07:09:55.527Z,61.26
2019-04-11T07:10:55.248Z,61.19
2019-04-11T07:11:54.522Z,61.60
2019-04-11T07:12:56.945Z,60.76
2019-04-11T07:13:55.492Z,59.80
2019-04-11T07:14:55.102Z,57.51
2019-04-11T07:15:54.858Z,58.01
2019-04-11T07:17:02.268Z,57.94
2019-04-11T07:18:20.481Z,58.67
2019-04-11T07:19:19.849Z,59.67
2019-04-11T07:20:19.276Z,59.57
2019-04-11T07:21:19.243Z,59.77
2019-04-11T07:22:19.232Z,59.10
2019-04-11T07:23:20.138Z,59.20
2019-04-11T07:24:20.295Z,60.10
2019-04-11T07:25:20.276Z,60.23
2019-04-11T07:26:19.193Z,59.93
2019-04-11T07:27:20.173Z,60.03
2019-04-11T07:28:19.168Z,60.26
2019-04-11T07:29:19.491Z,60.56
2019-04-11T07:30:19.361Z,60.99
2019-04-11T07:31:19.401Z,61.57
2019-04-11T07:32:20.196Z,62.07
2019-04-11T07:33:20.164Z,60.76
2019-04-11T07:34:19.481Z,60.76
2019-04-11T07:35:19.333Z,59.99
2019-04-11T07:36:20.855Z,61.19
2019-04-11T07:37:19.261Z,61.80
2019-04-11T07:38:19.061Z,61.83
2019-04-11T07:39:20.108Z,62.23
2019-04-11T07:40:19.036Z,62.46
2019-04-11T07:41:19.595Z,62.86
2019-04-11T07:42:19.016Z,62.93
2019-04-11T07:43:19.518Z,63.31
2019-04-11T07:44:19.599Z,61.52
2019-04-11T07:45:18.988Z,62.16
2019-04-11T07:46:18.973Z,62.52
2019-04-11T07:47:22.176Z,63.40
2019-04-11T07:48:19.357Z,63.66
2019-04-11T07:49:19.916Z,64.47
2019-04-11T07:50:19.835Z,64.77
2019-04-11T07:51:19.652Z,63.96
2019-04-11T07:52:18.913Z,64.13
2019-04-11T07:53:19.729Z,63.73
2019-04-11T07:54:20.139Z,62.82
2019-04-11T07:55:19.031Z,63.40
2019-04-11T07:56:18.870Z,62.46
2019-04-11T07:57:19.285Z,62.73
2019-04-11T07:58:19.419Z,61.73
2019-04-11T07:59:19.582Z,61.40
2019-04-11T08:00:19.358Z,60.06
2019-04-11T08:01:44.719Z,59.93
2019-04-11T08:02:43.672Z,59.60
2019-04-11T08:03:44.628Z,59.40
2019-04-11T08:04:43.648Z,58.89
2019-04-11T08:05:44.624Z,58.49
2019-04-11T08:06:43.680Z,57.96
2019-04-11T08:07:44.816Z,57.16
2019-04-11T08:08:43.616Z,57.16
2019-04-11T08:09:43.877Z,57.66
2019-04-11T08:10:43.767Z,57.49
2019-04-11T08:11:44.243Z,58.22
2019-04-11T08:12:43.717Z,59.10
2019-04-11T08:13:43.563Z,58.29
2019-04-11T08:14:44.589Z,58.32
2019-04-11T08:15:43.950Z,59.00
2019-04-11T08:16:44.633Z,59.20
2019-04-11T08:17:44.505Z,57.62
2019-04-11T08:18:43.559Z,57.75
2019-04-11T08:19:43.823Z,57.42
2019-04-11T08:20:43.663Z,58.82
2019-04-11T08:21:44.101Z,57.92
2019-04-11T08:22:43.461Z,58.59
2019-04-11T08:23:43.602Z,57.31
2019-04-11T08:24:44.809Z,58.92
2019-04-11T08:25:43.427Z,59.68
2019-04-11T08:26:44.363Z,59.68
2019-04-11T08:27:53.092Z,60.26
2019-04-11T08:29:13.385Z,59.86
2019-04-11T08:30:33.186Z,59.75
2019-04-11T08:31:33.150Z,57.97
2019-04-11T08:32:33.788Z,58.81
2019-04-11T08:33:33.133Z,58.91
2019-04-11T08:34:33.247Z,59.18
2019-04-11T08:35:34.766Z,58.17
2019-04-11T08:36:33.777Z,58.55
2019-04-11T08:37:33.791Z,58.55
2019-04-11T08:38:34.158Z,58.02
2019-04-11T08:39:33.318Z,57.99
2019-04-11T08:40:33.603Z,57.69
2019-04-11T08:41:33.874Z,57.09
2019-04-11T08:42:33.721Z,54.87
2019-04-11T08:43:33.051Z,55.27
2019-04-11T08:44:34.130Z,55.25
2019-04-11T08:45:33.897Z,55.85
2019-04-11T08:46:33.147Z,55.93
2019-04-11T08:47:45.981Z,55.80
2019-04-11T08:48:57.775Z,54.57
2019-04-11T08:49:58.417Z,52.26
2019-04-11T08:50:58.701Z,52.54
2019-04-11T08:51:57.888Z,52.54
2019-04-11T08:52:57.783Z,51.53
2019-04-11T08:53:57.720Z,51.96
2019-04-11T08:54:57.705Z,52.46
2019-04-11T08:56:00.458Z,50.96
2019-04-11T08:56:57.689Z,51.19
2019-04-11T08:57:58.324Z,51.08
2019-04-11T08:58:57.767Z,52.06
2019-04-11T08:59:57.721Z,52.16
2019-04-11T09:01:00.420Z,51.19
2019-04-11T09:01:57.631Z,52.49
2019-04-11T09:02:57.618Z,52.51
2019-04-11T09:04:06.320Z,52.71
2019-04-11T09:05:22.819Z,53.72
2019-04-11T09:06:22.938Z,53.42
2019-04-11T09:07:22.542Z,53.82
2019-04-11T09:08:24.629Z,54.12
2019-04-11T09:09:23.120Z,53.92
2019-04-11T09:10:22.572Z,53.69
2019-04-11T09:11:22.640Z,54.49
2019-04-11T09:12:22.605Z,53.59
2019-04-11T09:13:22.971Z,53.86
2019-04-11T09:14:22.488Z,53.47
2019-04-11T09:15:22.464Z,53.64
2019-04-11T09:16:23.620Z,53.14
2019-04-11T09:17:23.352Z,52.91
2019-04-11T09:18:22.419Z,52.21
2019-04-11T09:19:23.054Z,51.61
2019-04-11T09:20:23.340Z,51.91
2019-04-11T09:21:22.401Z,52.21
2019-04-11T09:22:22.683Z,51.11
2019-04-11T09:23:22.362Z,51.01
2019-04-11T09:24:22.351Z,51.34
2019-04-11T09:25:23.251Z,51.23
2019-04-11T09:26:23.343Z,51.86
2019-04-11T09:27:22.654Z,52.36
2019-04-11T09:28:22.408Z,52.86
2019-04-11T09:29:22.298Z,53.16
2019-04-11T09:30:23.045Z,52.56
2019-04-11T09:31:22.274Z,52.34
2019-04-11T09:32:22.276Z,52.34
2019-04-11T09:33:22.698Z,52.94
2019-04-11T09:34:22.346Z,51.21
2019-04-11T09:35:22.229Z,50.73
2019-04-11T09:36:22.219Z,50.73
2019-04-11T09:37:22.231Z,51.64
2019-04-11T09:38:22.263Z,52.44
2019-04-11T09:39:23.241Z,52.21
2019-04-11T09:40:22.227Z,51.41
2019-04-11T09:41:22.682Z,51.89
2019-04-11T09:42:23.003Z,50.86
2019-04-11T09:43:22.313Z,50.76
2019-04-11T09:44:22.479Z,49.66
2019-04-11T09:45:22.272Z,50.26
2019-04-11T09:46:22.164Z,49.76
2019-04-11T09:47:22.222Z,51.16
2019-04-11T09:48:23.317Z,51.04
2019-04-11T09:49:22.723Z,50.84
2019-04-11T09:50:22.418Z,51.04
2019-04-11T09:51:23.368Z,49.43
2019-04-11T09:52:22.748Z,49.43
2019-04-11T09:53:22.754Z,48.63
2019-04-11T09:54:22.030Z,47.83
2019-04-11T09:55:22.014Z,48.43
2019-04-11T09:56:22.828Z,48.71
2019-04-11T09:57:22.813Z,47.74
2019-04-11T09:58:23.082Z,47.61
2019-04-11T09:59:23.011Z,47.71
2019-04-11T10:00:22.920Z,47.03
2019-04-11T10:01:21.951Z,47.63
2019-04-11T10:02:23.254Z,47.13
2019-04-11T10:03:23.372Z,47.03
2019-04-11T10:04:21.919Z,47.24
2019-04-11T10:05:22.357Z,47.43
2019-04-11T10:06:21.895Z,47.24
2019-04-11T10:07:21.890Z,47.83
2019-04-11T10:08:22.463Z,46.93
2019-04-11T10:09:22.040Z,47.43
2019-04-11T10:10:21.852Z,47.63
2019-04-11T10:11:22.000Z,46.31
2019-04-11T10:12:22.119Z,46.93
2019-04-11T10:13:21.824Z,46.24
2019-04-11T10:14:21.810Z,45.61
2019-04-11T10:15:23.154Z,45.51
2019-04-11T10:16:22.112Z,44.61
2019-04-11T10:17:24.494Z,44.49
2019-04-11T10:18:26.145Z,45.09
2019-04-11T10:19:46.569Z,43.01
2019-04-11T10:20:46.710Z,44.11
2019-04-11T10:21:47.782Z,45.03
2019-04-11T10:22:46.539Z,45.53
2019-04-11T10:23:47.141Z,44.53
2019-04-11T10:24:46.521Z,46.41
2019-04-11T10:25:47.605Z,45.41
2019-04-11T10:26:47.821Z,46.11
2019-04-11T10:27:47.018Z,45.89
2019-04-11T10:28:46.481Z,45.69
2019-04-11T10:29:46.469Z,46.01
2019-04-11T10:30:46.511Z,45.61
2019-04-11T10:31:46.530Z,45.39
2019-04-11T10:32:47.555Z,45.21
2019-04-11T10:33:46.893Z,44.83
2019-04-11T10:34:46.419Z,44.73
2019-04-11T10:35:46.451Z,45.43
2019-04-11T10:36:47.379Z,46.55
2019-04-11T10:37:47.624Z,47.25
2019-04-11T10:38:46.818Z,46.93
2019-04-11T10:39:46.358Z,46.63
2019-04-11T10:40:46.353Z,47.24
2019-04-11T10:41:47.893Z,44.73
2019-04-11T10:42:46.553Z,46.43
2019-04-11T10:43:47.464Z,46.43
2019-04-11T10:44:46.309Z,46.74
2019-04-11T10:45:46.901Z,46.24
2019-04-11T10:46:47.366Z,45.33
2019-04-11T10:47:47.294Z,45.63
2019-04-11T10:48:47.474Z,45.13
2019-04-11T10:49:46.295Z,45.63
2019-04-11T10:50:46.651Z,44.53
2019-04-11T10:51:46.240Z,45.23
2019-04-11T10:52:46.742Z,44.93
2019-04-11T10:53:47.041Z,45.93
2019-04-11T10:54:47.119Z,45.63
2019-04-11T10:55:46.215Z,44.43
2019-04-11T10:56:47.460Z,44.33
2019-04-11T10:57:46.702Z,43.95
2019-04-11T10:58:46.213Z,42.45
2019-04-11T10:59:47.079Z,42.55
2019-04-11T11:00:47.295Z,42.65
2019-04-11T11:01:46.440Z,45.05
2019-04-11T11:02:47.384Z,44.55
2019-04-11T11:03:47.252Z,42.65
2019-04-11T11:04:46.253Z,43.45
2019-04-11T11:05:47.172Z,44.05
2019-04-11T11:06:46.574Z,43.45
2019-04-11T11:07:46.069Z,42.95
2019-04-11T11:08:46.059Z,43.25
2019-04-11T11:09:46.357Z,42.05
2019-04-11T11:10:46.091Z,43.85
2019-04-11T11:11:46.251Z,44.35
2019-04-11T11:12:46.011Z,42.55
2019-04-11T11:13:46.004Z,44.15
2019-04-11T11:14:46.977Z,43.73
2019-04-11T11:15:45.984Z,44.23
2019-04-11T11:16:47.038Z,43.93
2019-04-11T11:18:12.625Z,44.03
2019-04-11T11:19:43.884Z,42.83
2019-04-11T11:20:22.272Z,43.13
2019-04-11T11:21:37.044Z,42.63
2019-04-11T11:22:36.285Z,41.83
2019-04-11T11:23:35.539Z,42.25
2019-04-11T11:24:38.244Z,42.73
2019-04-11T11:25:35.524Z,42.55
2019-04-11T11:26:35.674Z,42.45
2019-04-11T11:27:35.500Z,44.25
2019-04-11T11:28:36.676Z,43.45
2019-04-11T11:29:35.473Z,44.65
2019-04-11T11:30:35.468Z,43.95
2019-04-11T11:31:36.268Z,44.15
2019-04-11T11:32:35.777Z,43.85
2019-04-11T11:33:35.447Z,43.75
2019-04-11T11:34:36.647Z,44.05
2019-04-11T11:35:40.085Z,43.55
2019-04-11T11:36:37.593Z,43.65
2019-04-11T11:37:35.466Z,43.95
2019-04-11T11:38:35.828Z,43.75
2019-04-11T11:39:35.370Z,43.25
2019-04-11T11:40:38.474Z,43.45
2019-04-11T11:41:36.433Z,44.13
2019-04-11T11:42:36.478Z,43.53
2019-04-11T11:43:35.330Z,44.23
2019-04-11T11:44:35.315Z,44.05
2019-04-11T11:45:35.465Z,44.65
2019-04-11T11:46:36.352Z,44.55
2019-04-11T11:47:38.677Z,43.83
2019-04-11T11:48:35.634Z,44.33
2019-04-11T11:49:45.878Z,44.03
2019-04-11T11:51:01.217Z,44.63
2019-04-11T11:52:01.568Z,43.63
2019-04-11T11:53:05.841Z,44.33
2019-04-11T11:54:24.843Z,44.33
2019-04-11T11:55:25.109Z,42.43
2019-04-11T11:56:24.834Z,43.73
2019-04-11T11:57:25.115Z,43.03
2019-04-11T11:58:25.762Z,43.13
2019-04-11T11:59:25.100Z,43.53
2019-04-11T12:00:25.061Z,43.63
2019-04-11T12:01:24.771Z,44.25
2019-04-11T12:02:24.759Z,43.45
2019-04-11T12:03:27.688Z,44.33
2019-04-11T12:04:26.096Z,43.85
2019-04-11T12:05:26.778Z,44.45
2019-04-11T12:06:25.230Z,44.05
2019-04-11T12:07:25.155Z,43.95
2019-04-11T12:08:24.694Z,44.25
2019-04-11T12:09:24.740Z,44.33
2019-04-11T12:10:26.015Z,44.43
2019-04-11T12:11:24.670Z,44.63
2019-04-11T12:12:24.657Z,44.41
2019-04-11T12:13:24.648Z,44.11
2019-04-11T12:14:24.637Z,44.51
2019-04-11T12:15:26.842Z,44.81
2019-04-11T12:16:25.825Z,44.63
2019-04-11T12:17:24.911Z,45.33
2019-04-11T12:18:24.641Z,44.63
2019-04-11T12:19:24.821Z,44.53
2019-04-11T12:20:24.955Z,45.53
2019-04-11T12:21:27.831Z,45.63
2019-04-11T12:22:24.546Z,46.05
2019-04-11T12:23:24.535Z,45.66
2019-04-11T12:24:25.238Z,45.66
2019-04-11T12:25:25.117Z,45.28
2019-04-11T12:26:28.821Z,45.88
2019-04-11T12:27:24.605Z,46.98
2019-04-11T12:28:25.580Z,46.58
2019-04-11T12:29:24.479Z,46.60
2019-04-11T12:30:29.083Z,47.20
2019-04-11T12:31:50.235Z,46.58
2019-04-11T12:32:49.407Z,46.58
2019-04-11T12:33:49.962Z,45.70
2019-04-11T12:34:49.437Z,46.70
2019-04-11T12:35:49.223Z,46.38
2019-04-11T12:36:50.817Z,46.40
2019-04-11T12:37:51.787Z,46.90
2019-04-11T12:38:49.243Z,47.20
2019-04-11T12:39:49.185Z,47.10
2019-04-11T12:40:49.166Z,47.20
2019-04-11T12:41:49.163Z,47.10
2019-04-11T12:42:49.149Z,47.70
2019-04-11T12:43:49.135Z,48.20
2019-04-11T12:44:49.177Z,47.90
2019-04-11T12:45:49.121Z,47.90
2019-04-11T12:46:49.103Z,47.80
2019-04-11T12:47:49.094Z,47.80
2019-04-11T12:48:49.079Z,48.01
2019-04-11T12:49:53.056Z,47.70
2019-04-11T12:50:49.212Z,48.51
2019-04-11T12:51:49.050Z,48.01
2019-04-11T12:52:49.040Z,48.20
2019-04-11T12:53:49.028Z,47.93
2019-04-11T12:54:49.025Z,47.72
2019-04-11T12:55:49.006Z,49.03
2019-04-11T12:56:49.043Z,48.93
2019-04-11T12:57:48.992Z,49.03
2019-04-11T12:58:48.972Z,48.93
2019-04-11T12:59:48.965Z,49.13
2019-04-11T13:00:48.958Z,49.13
2019-04-11T13:01:48.938Z,49.53
2019-04-11T13:02:48.983Z,49.53
2019-04-11T13:03:48.921Z,49.83
2019-04-11T13:04:48.909Z,49.93
2019-04-11T13:05:48.895Z,50.03
2019-04-11T13:06:48.892Z,49.93
2019-04-11T13:07:48.883Z,49.33
2019-04-11T13:08:49.022Z,49.43
2019-04-11T13:09:48.855Z,49.63
2019-04-11T13:10:48.845Z,49.43
2019-04-11T13:11:48.836Z,50.53
2019-04-11T13:12:48.824Z,50.15
2019-04-11T13:13:48.817Z,50.46
2019-04-11T13:14:48.905Z,49.83
2019-04-11T13:15:48.787Z,50.13
2019-04-11T13:16:48.778Z,49.95
2019-04-11T13:17:48.768Z,50.33
2019-04-11T13:18:48.758Z,49.76
2019-04-11T13:19:48.748Z,49.76
2019-04-11T13:20:48.782Z,49.95
2019-04-11T13:21:48.731Z,50.15
2019-04-11T13:22:48.716Z,50.56
2019-04-11T13:23:48.702Z,50.86
2019-04-11T13:24:48.692Z,50.86
2019-04-11T13:25:48.680Z,51.39
2019-04-11T13:26:48.719Z,50.98
2019-04-11T13:27:48.661Z,51.08
2019-04-11T13:28:48.649Z,50.88
2019-04-11T13:29:48.641Z,51.58
2019-04-11T13:30:48.624Z,51.48
2019-04-11T13:31:48.771Z,51.48
2019-04-11T13:32:48.604Z,51.69
2019-04-11T13:33:48.597Z,51.39
2019-04-11T13:34:48.582Z,51.19
2019-04-11T13:35:48.571Z,51.48
2019-04-11T13:36:48.561Z,51.89
2019-04-11T13:37:48.653Z,51.78
2019-04-11T13:38:48.544Z,52.39
2019-04-11T13:39:48.528Z,51.89
2019-04-11T13:40:48.517Z,51.98
2019-04-11T13:41:48.504Z,51.89
2019-04-11T13:42:48.497Z,51.89
2019-04-11T13:43:48.534Z,52.39
2019-04-11T13:44:48.479Z,52.49
2019-04-11T13:45:48.464Z,51.98
2019-04-11T13:46:48.463Z,52.49
2019-04-11T13:47:48.448Z,51.61
2019-04-11T13:48:48.429Z,51.89
2019-04-11T13:49:48.719Z,52.41
2019-04-11T13:50:48.413Z,52.31
2019-04-11T13:51:48.404Z,52.51
2019-04-11T13:52:48.389Z,52.01
2019-04-11T13:53:48.378Z,52.21
2019-04-11T13:54:48.369Z,52.41